createdAt,value
2018-08-17T00:00:22.611Z,18.53
2018-08-17T00:02:51.146Z,18.53
2018-08-17T00:05:19.696Z,18.36
2018-08-17T00:07:48.154Z,18.46
2018-08-17T00:10:16.609Z,18.42
2018-08-17T00:12:45.146Z,18.45
2018-08-17T00:15:13.611Z,18.39
2018-08-17T00:17:42.439Z,18.35
2018-08-17T00:20:10.931Z,18.22
2018-08-17T00:22:39.444Z,18.10
2018-08-17T00:25:07.889Z,18.03
2018-08-17T00:27:36.377Z,17.98
2018-08-17T00:30:05.876Z,18.02
2018-08-17T00:32:34.664Z,17.90
2018-08-17T00:35:03.197Z,17.75
2018-08-17T00:37:31.733Z,17.73
2018-08-17T00:40:00.186Z,17.70
2018-08-17T00:42:28.805Z,17.81
2018-08-17T00:44:57.307Z,17.83
2018-08-17T00:47:25.768Z,17.86
2018-08-17T00:49:54.213Z,17.88
2018-08-17T00:52:22.744Z,17.85
2018-08-17T00:54:51.192Z,17.84
2018-08-17T00:57:19.611Z,17.82
2018-08-17T00:59:48.033Z,17.78
2018-08-17T01:02:16.549Z,17.76
2018-08-17T01:04:44.977Z,17.70
2018-08-17T01:07:13.413Z,17.57
2018-08-17T01:09:41.850Z,17.50
2018-08-17T01:12:10.294Z,17.52
2018-08-17T01:14:38.741Z,17.56
2018-08-17T01:17:07.177Z,17.59
2018-08-17T01:19:35.605Z,17.53
2018-08-17T01:22:04.037Z,17.50
2018-08-17T01:24:32.486Z,17.43
2018-08-17T01:27:00.901Z,17.48
2018-08-17T01:29:29.363Z,17.37
2018-08-17T01:31:57.814Z,17.34
2018-08-17T01:34:26.294Z,17.26
2018-08-17T01:36:54.722Z,17.19
2018-08-17T01:39:23.203Z,17.18
2018-08-17T01:41:51.654Z,17.26
2018-08-17T01:44:20.092Z,17.30
2018-08-17T01:46:48.501Z,17.34
2018-08-17T01:49:16.982Z,17.40
2018-08-17T01:51:45.422Z,17.44
2018-08-17T01:54:13.849Z,17.53
2018-08-17T01:56:42.261Z,17.54
2018-08-17T01:59:10.717Z,17.55
2018-08-17T02:01:39.129Z,17.56
2018-08-17T02:04:07.578Z,17.58
2018-08-17T02:06:36.023Z,17.62
2018-08-17T02:09:06.856Z,17.60
2018-08-17T02:11:35.225Z,17.66
2018-08-17T02:14:03.649Z,17.66
2018-08-17T02:16:32.038Z,17.73
2018-08-17T02:19:00.510Z,17.76
2018-08-17T02:21:29.115Z,17.84
2018-08-17T02:23:57.590Z,17.81
2018-08-17T02:26:26.029Z,17.81
2018-08-17T02:28:54.466Z,17.80
2018-08-17T02:31:22.907Z,17.80
2018-08-17T02:33:51.306Z,17.78
2018-08-17T02:36:19.804Z,17.82
2018-08-17T02:38:48.297Z,17.83
2018-08-17T02:41:16.822Z,17.89
2018-08-17T02:43:45.265Z,17.92
2018-08-17T02:46:13.725Z,17.87
2018-08-17T02:48:42.172Z,17.83
2018-08-17T02:51:10.583Z,17.83
2018-08-17T02:53:39.036Z,17.80
2018-08-17T02:56:07.483Z,17.88
2018-08-17T02:58:35.924Z,17.81
2018-08-17T03:01:04.462Z,17.84
2018-08-17T03:03:32.905Z,17.90
2018-08-17T03:06:01.395Z,17.94
2018-08-17T03:08:29.895Z,17.90
2018-08-17T03:10:58.340Z,17.92
2018-08-17T03:13:26.727Z,17.78
2018-08-17T03:15:55.167Z,17.70
2018-08-17T03:18:23.622Z,17.68
2018-08-17T03:20:52.048Z,17.68
2018-08-17T03:23:20.558Z,17.73
2018-08-17T03:25:48.978Z,17.78
2018-08-17T03:28:17.373Z,17.78
2018-08-17T03:30:45.881Z,17.73
2018-08-17T03:33:14.275Z,17.76
2018-08-17T03:35:42.745Z,17.72
2018-08-17T03:38:11.230Z,17.73
2018-08-17T03:40:39.593Z,17.68
2018-08-17T03:43:07.998Z,17.67
2018-08-17T03:45:36.456Z,17.69
2018-08-17T03:48:04.905Z,17.66
2018-08-17T03:50:33.477Z,17.59
2018-08-17T03:53:01.903Z,17.57
2018-08-17T03:55:30.353Z,17.49
2018-08-17T03:57:58.768Z,17.51
2018-08-17T04:00:27.259Z,17.51
2018-08-17T04:02:55.683Z,17.53
2018-08-17T04:05:24.099Z,17.57
2018-08-17T04:07:52.602Z,17.55
2018-08-17T04:10:21.090Z,17.57
2018-08-17T04:12:49.526Z,17.67
2018-08-17T04:15:17.972Z,17.68
2018-08-17T04:17:46.416Z,17.70
2018-08-17T04:20:14.912Z,17.79
2018-08-17T04:22:43.617Z,17.82
2018-08-17T04:25:12.092Z,17.95
2018-08-17T04:27:40.535Z,17.98
2018-08-17T04:30:09.138Z,17.96
2018-08-17T04:32:37.826Z,17.99
2018-08-17T04:35:06.366Z,18.01
2018-08-17T04:37:34.871Z,18.13
2018-08-17T04:40:03.359Z,18.16
2018-08-17T04:42:31.786Z,18.21
2018-08-17T04:45:07.974Z,18.13
2018-08-17T04:47:37.590Z,18.05
2018-08-17T04:50:06.433Z,18.07
2018-08-17T04:52:34.953Z,18.19
2018-08-17T04:55:03.498Z,18.16
2018-08-17T04:57:32.006Z,18.24
2018-08-17T05:00:00.526Z,18.25
2018-08-17T05:02:28.999Z,18.34
2018-08-17T05:04:57.531Z,18.28
2018-08-17T05:07:26.014Z,18.36
2018-08-17T05:09:54.482Z,18.35
2018-08-17T05:12:22.966Z,18.36
2018-08-17T05:14:51.478Z,18.31
2018-08-17T05:17:19.969Z,18.52
2018-08-17T05:19:48.456Z,18.43
2018-08-17T05:22:16.956Z,18.54
2018-08-17T05:24:45.418Z,18.70
2018-08-17T05:27:13.881Z,18.63
2018-08-17T05:29:42.322Z,18.82
2018-08-17T05:32:10.855Z,18.79
2018-08-17T05:34:39.281Z,18.74
2018-08-17T05:37:07.785Z,18.89
2018-08-17T05:39:36.349Z,18.69
2018-08-17T05:42:04.882Z,18.49
2018-08-17T05:44:33.329Z,18.45
2018-08-17T05:47:01.858Z,18.40
2018-08-17T05:49:30.343Z,18.40
2018-08-17T05:51:58.841Z,18.43
2018-08-17T05:54:27.341Z,18.46
2018-08-17T05:56:55.802Z,18.46
2018-08-17T05:59:24.257Z,18.48
2018-08-17T06:01:52.723Z,18.61
2018-08-17T06:04:21.185Z,18.74
2018-08-17T06:06:49.666Z,18.99
2018-08-17T06:09:18.101Z,19.15
2018-08-17T06:11:46.613Z,19.27
2018-08-17T06:14:15.030Z,19.44
2018-08-17T06:16:43.518Z,19.46
2018-08-17T06:19:12.015Z,19.36
2018-08-17T06:21:40.517Z,19.00
2018-08-17T06:24:09.011Z,18.68
2018-08-17T06:26:37.520Z,18.55
2018-08-17T06:29:06.059Z,18.64
2018-08-17T06:38:10.016Z,18.46
2018-08-17T06:40:38.489Z,18.40
2018-08-17T06:43:07.057Z,18.38
2018-08-17T06:45:36.678Z,18.28
2018-08-17T06:48:05.309Z,18.25
2018-08-17T06:50:33.873Z,18.11
2018-08-17T06:53:02.334Z,18.08
2018-08-17T06:55:30.761Z,18.21
2018-08-17T06:57:59.196Z,18.36
2018-08-17T07:00:27.614Z,18.36
2018-08-17T07:02:56.029Z,18.53
2018-08-17T07:05:24.460Z,18.60
2018-08-17T07:07:52.876Z,18.51
2018-08-17T07:10:21.306Z,18.33
2018-08-17T07:12:49.717Z,18.12
2018-08-17T07:15:18.146Z,18.03
2018-08-17T07:17:46.550Z,18.10
2018-08-17T07:20:15.006Z,18.04
2018-08-17T07:22:43.428Z,18.17
2018-08-17T07:25:11.873Z,18.28
2018-08-17T07:27:40.322Z,18.29
2018-08-17T07:30:09.468Z,18.34
2018-08-17T07:32:37.894Z,18.50
2018-08-17T07:35:07.960Z,18.59
2018-08-17T07:37:36.357Z,18.71
2018-08-17T07:40:04.981Z,18.83
2018-08-17T07:42:33.438Z,18.86
2018-08-17T07:45:02.978Z,18.84
2018-08-17T07:47:31.422Z,18.62
2018-08-17T07:49:59.941Z,18.66
2018-08-17T07:52:28.424Z,18.59
2018-08-17T07:54:56.877Z,18.69
2018-08-17T07:57:25.382Z,18.61
2018-08-17T07:59:53.829Z,18.58
2018-08-17T08:02:22.296Z,18.69
2018-08-17T08:04:50.756Z,18.91
2018-08-17T08:07:19.260Z,19.07
2018-08-17T08:09:47.740Z,18.94
2018-08-17T08:12:16.205Z,18.86
2018-08-17T08:14:44.729Z,18.85
2018-08-17T08:17:18.871Z,18.70
2018-08-17T08:19:57.226Z,18.89
2018-08-17T08:22:25.663Z,18.76
2018-08-17T08:24:54.117Z,18.73
2018-08-17T08:27:22.590Z,18.57
2018-08-17T08:30:03.342Z,18.48
2018-08-17T08:32:31.871Z,18.48
2018-08-17T08:35:00.358Z,18.64
2018-08-17T08:37:28.845Z,18.66
2018-08-17T08:39:57.299Z,18.67
2018-08-17T08:42:25.797Z,18.86
2018-08-17T08:44:54.263Z,18.97
2018-08-17T08:47:22.738Z,19.07
2018-08-17T08:49:51.158Z,19.12
2018-08-17T08:52:19.592Z,19.20
2018-08-17T08:54:47.973Z,19.24
2018-08-17T08:57:16.441Z,19.28
2018-08-17T08:59:44.840Z,19.50
2018-08-17T09:02:13.288Z,19.84
2018-08-17T09:04:41.758Z,19.95
2018-08-17T09:07:10.246Z,20.21
2018-08-17T09:09:38.656Z,20.57
2018-08-17T09:12:07.177Z,20.81
2018-08-17T09:14:35.636Z,20.70
2018-08-17T09:17:04.097Z,20.68
2018-08-17T09:19:32.514Z,20.86
2018-08-17T09:22:01.029Z,21.05
2018-08-17T09:24:35.791Z,20.89
2018-08-17T09:27:04.305Z,20.98
2018-08-17T09:29:32.681Z,21.18
2018-08-17T09:32:01.099Z,21.16
2018-08-17T09:34:29.498Z,21.03
2018-08-17T09:36:58.287Z,20.91
2018-08-17T09:39:27.074Z,20.66
2018-08-17T09:41:55.646Z,20.95
2018-08-17T09:44:24.113Z,20.93
2018-08-17T09:46:52.558Z,21.02
2018-08-17T09:49:20.990Z,20.55
2018-08-17T09:51:49.410Z,20.37
2018-08-17T09:54:17.872Z,20.38
2018-08-17T09:56:46.393Z,21.11
2018-08-17T09:59:14.847Z,20.93
2018-08-17T10:01:48.577Z,20.60
2018-08-17T10:04:22.298Z,20.80
2018-08-17T10:06:56.009Z,21.20
2018-08-17T10:09:28.673Z,20.72
2018-08-17T10:11:57.145Z,20.71
2018-08-17T10:14:25.653Z,21.08
2018-08-17T10:16:54.069Z,21.28
2018-08-17T10:19:22.494Z,21.33
2018-08-17T10:21:52.379Z,21.21
2018-08-17T10:24:21.037Z,20.94
2018-08-17T10:26:50.373Z,20.56
2018-08-17T10:29:19.374Z,20.33
2018-08-17T10:31:48.580Z,20.24
2018-08-17T10:34:17.058Z,20.24
2018-08-17T10:36:46.071Z,20.45
2018-08-17T10:39:14.686Z,20.98
2018-08-17T10:41:43.324Z,20.72
2018-08-17T10:44:12.518Z,20.47
2018-08-17T10:46:41.433Z,20.56
2018-08-17T10:49:10.556Z,20.27
2018-08-17T10:51:39.426Z,19.96
2018-08-17T10:54:09.207Z,19.75
2018-08-17T10:56:37.663Z,20.45
2018-08-17T10:59:06.263Z,20.94
2018-08-17T11:01:34.733Z,21.08
2018-08-17T11:04:03.364Z,20.70
2018-08-17T11:06:31.799Z,21.50
2018-08-17T11:09:00.345Z,21.47
2018-08-17T11:11:28.781Z,20.33
2018-08-17T11:13:57.254Z,20.78
2018-08-17T11:16:25.714Z,21.46
2018-08-17T11:18:54.264Z,21.18
2018-08-17T11:21:22.724Z,22.07
2018-08-17T11:23:51.261Z,22.40
2018-08-17T11:26:19.709Z,22.33
2018-08-17T11:28:48.183Z,21.92
2018-08-17T11:31:16.705Z,21.35
2018-08-17T11:33:45.150Z,20.50
2018-08-17T11:36:13.585Z,21.35
2018-08-17T11:38:42.046Z,20.94
2018-08-17T11:41:11.487Z,21.00
2018-08-17T11:43:39.935Z,21.24
2018-08-17T11:46:08.433Z,21.06
2018-08-17T11:48:37.773Z,21.10
2018-08-17T11:51:06.329Z,20.82
2018-08-17T11:53:34.785Z,20.83
2018-08-17T11:56:03.245Z,21.00
2018-08-17T11:58:31.650Z,20.83
2018-08-17T12:01:00.209Z,21.02
2018-08-17T12:03:28.682Z,20.50
2018-08-17T12:05:57.148Z,20.40
2018-08-17T12:08:25.588Z,20.60
2018-08-17T12:11:03.214Z,20.51
2018-08-17T12:13:31.678Z,20.58
2018-08-17T12:16:00.165Z,20.41
2018-08-17T12:18:28.794Z,20.84
2018-08-17T12:20:57.229Z,21.10
2018-08-17T12:23:25.640Z,20.58
2018-08-17T12:25:59.389Z,20.37
2018-08-17T12:28:32.927Z,20.12
2018-08-17T12:31:04.395Z,20.27
2018-08-17T12:33:33.278Z,20.10
2018-08-17T12:36:02.688Z,19.95
2018-08-17T12:38:31.285Z,19.66
2018-08-17T12:40:59.918Z,19.93
2018-08-17T12:43:38.004Z,19.86
2018-08-17T12:46:17.805Z,19.92
2018-08-17T12:48:46.566Z,19.72
2018-08-17T12:51:15.181Z,19.61
2018-08-17T12:53:43.859Z,19.74
2018-08-17T12:56:12.475Z,19.72
2018-08-17T12:58:41.061Z,19.87
2018-08-17T13:01:10.390Z,20.39
2018-08-17T13:03:39.049Z,20.54
2018-08-17T13:06:07.689Z,20.64
2018-08-17T13:09:13.343Z,20.41
2018-08-17T13:11:47.222Z,21.09
2018-08-17T13:14:15.890Z,21.16
2018-08-17T13:16:44.753Z,21.35
2018-08-17T13:19:13.163Z,21.24
2018-08-17T13:21:41.610Z,21.21
2018-08-17T13:24:10.058Z,22.06
2018-08-17T13:26:38.499Z,22.46
2018-08-17T13:29:06.953Z,22.19
2018-08-17T13:31:35.370Z,23.09
2018-08-17T13:34:04.086Z,22.72
2018-08-17T13:36:32.514Z,22.10
2018-08-17T13:39:00.941Z,21.91
2018-08-17T13:41:29.390Z,22.07
2018-08-17T13:43:57.801Z,21.37
2018-08-17T13:46:26.247Z,21.25
2018-08-17T13:48:54.800Z,22.11
2018-08-17T13:51:23.245Z,21.98
2018-08-17T13:53:51.676Z,22.86
2018-08-17T13:56:20.106Z,22.87
2018-08-17T13:58:48.536Z,22.77
2018-08-17T14:01:17.031Z,21.97
2018-08-17T14:03:45.404Z,22.48
2018-08-17T14:06:13.834Z,22.18
2018-08-17T14:08:42.297Z,22.47
2018-08-17T14:11:10.719Z,22.05
2018-08-17T14:13:39.165Z,21.86
2018-08-17T14:16:07.624Z,21.92
2018-08-17T14:18:36.085Z,23.56
2018-08-17T14:21:04.521Z,23.66
2018-08-17T14:23:32.978Z,23.36
2018-08-17T14:26:01.424Z,22.53
2018-08-17T14:28:29.821Z,21.83
2018-08-17T14:30:58.286Z,22.02
2018-08-17T14:33:26.717Z,22.39
2018-08-17T14:35:55.118Z,22.31
2018-08-17T14:38:30.827Z,22.41
2018-08-17T14:40:59.220Z,22.37
2018-08-17T14:43:27.909Z,22.78
2018-08-17T14:45:56.416Z,22.55
2018-08-17T14:48:24.898Z,22.17
2018-08-17T14:50:55.644Z,22.42
2018-08-17T14:53:24.159Z,22.52
2018-08-17T14:55:52.693Z,23.80
2018-08-17T14:58:21.188Z,24.40
2018-08-17T15:00:49.704Z,24.58
2018-08-17T15:03:18.150Z,26.69
2018-08-17T15:05:46.562Z,26.53
2018-08-17T15:08:15.015Z,26.50
2018-08-17T15:10:43.455Z,25.25
2018-08-17T15:13:11.960Z,26.57
2018-08-17T15:15:44.568Z,27.86
2018-08-17T15:18:13.018Z,27.34
2018-08-17T15:20:41.572Z,27.41
2018-08-17T15:23:10.062Z,28.40
2018-08-17T15:25:39.197Z,28.26
2018-08-17T15:28:07.723Z,29.02
2018-08-17T15:30:36.098Z,28.27
2018-08-17T15:33:04.551Z,27.46
2018-08-17T15:35:32.993Z,27.01
2018-08-17T15:38:02.489Z,24.31
2018-08-17T15:40:30.968Z,24.76
2018-08-17T15:43:03.562Z,24.73
2018-08-17T15:45:32.001Z,24.50
2018-08-17T15:48:00.548Z,23.59
2018-08-17T15:50:29.187Z,23.69
2018-08-17T15:52:58.050Z,24.32
2018-08-17T15:55:26.502Z,24.43
2018-08-17T15:57:55.027Z,24.07
2018-08-17T16:00:23.431Z,23.24
2018-08-17T16:02:51.905Z,23.29
2018-08-17T16:05:20.429Z,23.33
2018-08-17T16:07:58.995Z,23.69
2018-08-17T16:10:27.496Z,25.41
2018-08-17T16:12:56.049Z,26.35
2018-08-17T16:15:24.512Z,28.01
2018-08-17T16:17:52.966Z,28.29
2018-08-17T16:20:21.423Z,24.85
2018-08-17T16:22:49.853Z,27.01
2018-08-17T16:25:18.406Z,27.92
2018-08-17T16:27:46.847Z,29.12
2018-08-17T16:30:16.025Z,27.05
2018-08-17T16:32:44.465Z,27.13
2018-08-17T16:35:13.469Z,26.30
2018-08-17T16:37:43.372Z,28.74
2018-08-17T16:40:11.820Z,27.95
2018-08-17T16:42:40.213Z,28.62
2018-08-17T16:45:09.367Z,28.31
2018-08-17T16:47:42.444Z,28.98
2018-08-17T16:50:10.954Z,29.95
2018-08-17T16:52:39.832Z,25.89
2018-08-17T16:55:08.478Z,24.67
2018-08-17T16:57:37.427Z,24.12
2018-08-17T17:00:07.777Z,23.70
2018-08-17T17:02:36.218Z,23.18
2018-08-17T17:05:05.440Z,23.09
2018-08-17T17:07:34.159Z,22.87
2018-08-17T17:10:02.589Z,22.69
2018-08-17T17:12:31.086Z,22.83
2018-08-17T17:15:06.609Z,23.00
2018-08-17T17:17:35.601Z,23.13
2018-08-17T17:20:04.396Z,23.39
2018-08-17T17:22:32.815Z,23.09
2018-08-17T17:25:09.445Z,23.07
2018-08-17T17:27:38.292Z,22.87
2018-08-17T17:30:07.291Z,22.88
2018-08-17T17:32:35.806Z,22.88
2018-08-17T17:35:04.385Z,22.80
2018-08-17T17:37:32.791Z,22.91
2018-08-17T17:40:01.369Z,22.72
2018-08-17T17:42:30.842Z,22.72
2018-08-17T17:44:59.302Z,22.59
2018-08-17T17:47:27.739Z,22.65
2018-08-17T17:49:56.263Z,22.67
2018-08-17T17:52:24.749Z,22.54
2018-08-17T17:54:53.171Z,22.44
2018-08-17T17:57:34.167Z,22.36
2018-08-17T18:00:02.686Z,22.25
2018-08-17T18:02:31.167Z,22.09
2018-08-17T18:04:59.621Z,22.02
2018-08-17T18:07:33.814Z,21.99
2018-08-17T18:10:03.371Z,21.92
2018-08-17T18:12:32.013Z,21.84
2018-08-17T18:15:00.516Z,21.74
2018-08-17T18:17:29.161Z,21.60
2018-08-17T18:19:57.605Z,21.61
2018-08-17T18:22:32.353Z,21.47
2018-08-17T18:25:05.599Z,21.24
2018-08-17T18:27:34.173Z,21.16
2018-08-17T18:30:02.919Z,21.15
2018-08-17T18:32:31.465Z,21.05
2018-08-17T18:34:59.999Z,20.94
2018-08-17T18:37:28.516Z,20.81
2018-08-17T18:40:00.542Z,20.60
2018-08-17T18:42:29.018Z,20.51
2018-08-17T18:44:57.603Z,20.41
2018-08-17T18:47:26.080Z,20.30
2018-08-17T18:49:54.566Z,20.09
2018-08-17T18:52:23.098Z,19.90
2018-08-17T18:54:51.538Z,19.80
2018-08-17T18:57:20.521Z,19.67
2018-08-17T18:59:49.014Z,19.54
2018-08-17T19:02:17.501Z,19.41
2018-08-17T19:04:45.973Z,19.26
2018-08-17T19:07:14.498Z,19.29
2018-08-17T19:09:43.392Z,19.23
2018-08-17T19:12:11.880Z,19.14
2018-08-17T19:14:47.316Z,19.05
2018-08-17T19:17:21.049Z,18.97
2018-08-17T19:19:50.318Z,18.83
2018-08-17T19:22:22.764Z,18.75
2018-08-17T19:24:52.576Z,18.75
2018-08-17T19:27:31.652Z,18.76
2018-08-17T19:30:00.149Z,18.79
2018-08-17T19:32:29.874Z,18.76
2018-08-17T19:34:58.361Z,18.68
2018-08-17T19:37:26.839Z,18.54
2018-08-17T19:39:55.319Z,18.44
2018-08-17T19:42:23.800Z,18.29
2018-08-17T19:44:52.320Z,18.18
2018-08-17T19:47:32.577Z,18.14
2018-08-17T19:50:01.047Z,18.18
2018-08-17T19:52:29.543Z,18.17
2018-08-17T19:54:58.086Z,18.04
2018-08-17T19:57:28.586Z,18.01
2018-08-17T19:59:57.034Z,17.97
2018-08-17T20:02:25.527Z,17.91
2018-08-17T20:04:53.969Z,18.08
2018-08-17T20:07:22.484Z,17.98
2018-08-17T20:09:50.987Z,17.88
2018-08-17T20:12:19.553Z,17.83
2018-08-17T20:14:48.088Z,17.70
2018-08-17T20:17:16.613Z,17.54
2018-08-17T20:19:49.447Z,17.44
2018-08-17T20:22:20.441Z,17.41
2018-08-17T20:24:49.080Z,17.31
2018-08-17T20:27:18.429Z,17.17
2018-08-17T20:29:51.481Z,17.22
2018-08-17T20:32:19.973Z,17.16
2018-08-17T20:34:49.601Z,17.14
2018-08-17T20:37:18.671Z,17.33
2018-08-17T20:39:47.847Z,17.29
2018-08-17T20:42:16.366Z,16.99
2018-08-17T20:44:44.867Z,16.85
2018-08-17T20:47:13.354Z,16.81
2018-08-17T20:49:49.873Z,16.78
2018-08-17T20:52:18.426Z,16.89
2018-08-17T20:54:46.942Z,16.85
2018-08-17T20:57:15.423Z,16.81
2018-08-17T20:59:44.057Z,16.67
2018-08-17T21:02:12.521Z,16.58
2018-08-17T21:04:41.019Z,16.50
2018-08-17T21:07:09.507Z,16.45
2018-08-17T21:09:37.960Z,16.33
2018-08-17T21:12:06.468Z,16.25
2018-08-17T21:14:34.934Z,16.17
2018-08-17T21:17:03.419Z,16.09
2018-08-17T21:19:39.017Z,15.98
2018-08-17T21:22:07.710Z,15.96
2018-08-17T21:24:37.261Z,15.98
2018-08-17T21:27:05.681Z,16.00
2018-08-17T21:29:34.187Z,15.93
2018-08-17T21:32:02.715Z,15.83
2018-08-17T21:34:31.800Z,15.72
2018-08-17T21:37:00.237Z,15.78
2018-08-17T21:39:28.697Z,15.75
2018-08-17T21:41:57.271Z,15.68
2018-08-17T21:44:25.689Z,15.77
2018-08-17T21:47:02.821Z,15.73
2018-08-17T21:49:31.394Z,15.68
2018-08-17T21:52:02.502Z,15.62
2018-08-17T21:54:32.326Z,15.51
2018-08-17T21:57:01.661Z,15.43
2018-08-17T21:59:35.766Z,15.47
2018-08-17T22:02:05.446Z,15.38
2018-08-17T22:04:34.009Z,15.40
2018-08-17T22:07:06.724Z,15.50
2018-08-17T22:09:41.290Z,15.52
2018-08-17T22:12:10.831Z,15.44
2018-08-17T22:14:41.422Z,15.50
2018-08-17T22:17:21.129Z,15.47
2018-08-17T22:19:49.839Z,15.46
2018-08-17T22:22:18.357Z,15.46
2018-08-17T22:24:52.469Z,15.41
2018-08-17T22:27:21.583Z,15.42
2018-08-17T22:29:51.517Z,15.37
2018-08-17T22:32:20.441Z,15.37
2018-08-17T22:34:49.329Z,15.33
2018-08-17T22:37:18.522Z,15.28
2018-08-17T22:39:47.249Z,15.20
2018-08-17T22:42:23.225Z,15.21
2018-08-17T22:44:52.250Z,15.15
2018-08-17T22:47:22.742Z,15.14
2018-08-17T22:49:51.984Z,15.14
2018-08-17T22:52:20.599Z,15.05
2018-08-17T22:54:54.289Z,14.96
2018-08-17T22:57:22.873Z,14.90
2018-08-17T23:00:07.513Z,14.90
2018-08-17T23:02:36.026Z,14.84
2018-08-17T23:05:04.946Z,14.82
2018-08-17T23:07:33.531Z,14.82
2018-08-17T23:10:02.235Z,14.87
2018-08-17T23:12:31.630Z,14.88
2018-08-17T23:15:00.530Z,14.71
2018-08-17T23:17:29.039Z,14.65
2018-08-17T23:19:58.053Z,14.63
2018-08-17T23:22:26.567Z,14.57
2018-08-17T23:24:55.039Z,14.50
2018-08-17T23:27:23.547Z,14.45
2018-08-17T23:29:51.977Z,14.50
2018-08-17T23:32:20.497Z,14.58
2018-08-17T23:34:48.894Z,14.60
2018-08-17T23:37:17.401Z,14.55
2018-08-17T23:39:45.941Z,14.59
2018-08-17T23:42:14.442Z,14.57
2018-08-17T23:44:42.858Z,14.47
2018-08-17T23:47:11.317Z,14.23
2018-08-17T23:49:39.744Z,14.06
2018-08-17T23:52:08.186Z,14.10
2018-08-17T23:54:38.385Z,14.09
2018-08-17T23:57:06.802Z,14.02
2018-08-17T23:59:35.265Z,14.03
